createdAt,value
2023-02-24T00:02:01.697Z,7.40
2023-02-24T00:04:31.159Z,7.40
2023-02-24T00:06:57.872Z,7.50
2023-02-24T00:09:28.015Z,7.50
2023-02-24T00:11:59.148Z,7.50
2023-02-24T00:14:29.420Z,7.50
2023-02-24T00:16:58.610Z,7.50
2023-02-24T00:19:27.874Z,7.50
2023-02-24T00:21:54.589Z,7.50
2023-02-24T00:24:22.264Z,7.50
2023-02-24T00:26:59.354Z,7.50
2023-02-24T00:29:28.428Z,7.50
2023-02-24T00:32:00.487Z,7.50
2023-02-24T00:34:31.958Z,7.50
2023-02-24T00:36:59.168Z,7.40
2023-02-24T00:39:35.764Z,7.40
2023-02-24T00:42:05.863Z,7.40
2023-02-24T00:44:35.389Z,7.40
2023-02-24T00:47:03.089Z,7.40
2023-02-24T00:49:29.849Z,7.30
2023-02-24T00:51:56.707Z,7.30
2023-02-24T00:54:27.375Z,7.30
2023-02-24T00:56:55.394Z,7.20
2023-02-24T00:59:24.083Z,7.20
2023-02-24T01:01:55.008Z,7.20
2023-02-24T01:04:22.676Z,7.10
2023-02-24T01:07:00.497Z,7.10
2023-02-24T01:09:30.116Z,7.10
2023-02-24T01:12:15.556Z,7.10
2023-02-24T01:14:45.473Z,7.10
2023-02-24T01:17:12.176Z,7.00
2023-02-24T01:19:39.180Z,7.00
2023-02-24T01:22:08.921Z,7.00
2023-02-24T01:24:41.128Z,7.00
2023-02-24T01:27:10.030Z,7.00
2023-02-24T01:29:39.949Z,7.00
2023-02-24T01:32:15.004Z,7.00
2023-02-24T01:34:42.730Z,7.00
2023-02-24T01:37:10.512Z,6.90
2023-02-24T01:39:37.676Z,6.90
2023-02-24T01:42:07.005Z,6.90
2023-02-24T01:44:33.815Z,6.90
2023-02-24T01:47:03.985Z,6.90
2023-02-24T01:49:37.124Z,6.90
2023-02-24T01:52:25.668Z,6.90
2023-02-24T01:55:29.257Z,7.00
2023-02-24T01:57:58.242Z,7.00
2023-02-24T02:00:45.153Z,7.00
2023-02-24T02:03:25.353Z,6.90
2023-02-24T02:05:55.060Z,7.00
2023-02-24T02:08:23.697Z,7.00
2023-02-24T02:10:58.560Z,7.00
2023-02-24T02:13:28.289Z,7.00
2023-02-24T02:16:05.388Z,7.00
2023-02-24T02:18:56.952Z,7.00
2023-02-24T02:21:33.077Z,7.00
2023-02-24T02:24:18.935Z,7.00
2023-02-24T02:27:03.403Z,6.90
2023-02-24T02:30:06.092Z,6.90
2023-02-24T02:33:13.100Z,6.90
2023-02-24T02:36:07.263Z,6.90
2023-02-24T02:38:57.429Z,6.90
2023-02-24T02:42:06.404Z,6.90
2023-02-24T02:44:40.269Z,6.90
2023-02-24T02:47:23.456Z,6.90
2023-02-24T02:49:53.942Z,6.90
2023-02-24T02:52:31.821Z,6.90
2023-02-24T02:55:18.392Z,6.90
2023-02-24T02:57:49.365Z,6.90
2023-02-24T03:00:24.014Z,6.90
2023-02-24T03:02:57.233Z,6.80
2023-02-24T03:05:46.928Z,6.80
2023-02-24T03:08:21.677Z,6.80
2023-02-24T03:10:51.031Z,6.80
2023-02-24T03:13:25.926Z,6.70
2023-02-24T03:15:55.057Z,6.70
2023-02-24T03:18:32.537Z,6.70
2023-02-24T03:21:13.113Z,6.80
2023-02-24T03:23:48.631Z,6.80
2023-02-24T03:26:25.665Z,6.70
2023-02-24T03:29:05.057Z,6.70
2023-02-24T03:31:59.340Z,6.80
2023-02-24T03:34:32.273Z,6.70
2023-02-24T03:36:59.384Z,6.80
2023-02-24T03:39:26.237Z,6.70
2023-02-24T03:42:06.701Z,6.70
2023-02-24T03:44:33.791Z,6.60
2023-02-24T03:47:01.903Z,6.60
2023-02-24T03:49:28.872Z,6.60
2023-02-24T03:52:13.855Z,6.50
2023-02-24T03:54:43.045Z,6.40
2023-02-24T03:57:29.863Z,6.40
2023-02-24T04:00:22.684Z,6.30
2023-02-24T04:03:03.428Z,6.30
2023-02-24T04:05:33.650Z,6.30
2023-02-24T04:08:09.285Z,6.30
2023-02-24T04:10:54.062Z,6.20
2023-02-24T04:13:39.355Z,6.20
2023-02-24T04:16:28.332Z,6.10
2023-02-24T04:19:03.862Z,6.10
2023-02-24T04:21:32.369Z,6.00
2023-02-24T04:24:06.514Z,6.00
2023-02-24T04:26:36.507Z,6.00
2023-02-24T04:29:03.723Z,6.00
2023-02-24T04:31:32.868Z,6.00
2023-02-24T04:34:00.447Z,6.00
2023-02-24T04:36:27.119Z,5.90
2023-02-24T04:38:54.220Z,5.90
2023-02-24T04:41:21.958Z,5.90
2023-02-24T04:43:51.064Z,5.90
2023-02-24T04:46:19.643Z,5.90
2023-02-24T04:48:46.493Z,6.00
2023-02-24T04:51:13.997Z,6.00
2023-02-24T04:53:41.072Z,6.00
2023-02-24T04:56:09.116Z,6.10
2023-02-24T04:58:39.084Z,6.10
2023-02-24T05:01:10.834Z,6.10
2023-02-24T05:03:42.376Z,6.20
2023-02-24T05:06:15.971Z,6.20
2023-02-24T05:08:43.782Z,6.20
2023-02-24T05:11:18.266Z,6.20
2023-02-24T05:13:46.195Z,6.20
2023-02-24T05:16:17.120Z,6.20
2023-02-24T05:18:47.677Z,6.20
2023-02-24T05:21:35.586Z,6.20
2023-02-24T05:24:07.245Z,6.30
2023-02-24T05:26:35.893Z,6.20
2023-02-24T05:29:04.460Z,6.20
2023-02-24T05:31:31.586Z,6.20
2023-02-24T05:34:02.910Z,6.20
2023-02-24T05:36:39.080Z,6.20
2023-02-24T05:39:07.871Z,6.20
2023-02-24T05:41:36.567Z,6.10
2023-02-24T05:44:08.499Z,6.10
2023-02-24T05:46:38.063Z,6.10
2023-02-24T05:49:11.251Z,6.10
2023-02-24T05:51:39.248Z,6.10
2023-02-24T05:54:08.499Z,6.10
2023-02-24T05:56:38.607Z,6.10
2023-02-24T05:59:09.240Z,6.10
2023-02-24T06:01:37.779Z,6.20
2023-02-24T06:04:06.394Z,6.10
2023-02-24T06:06:41.831Z,6.20
2023-02-24T06:09:12.983Z,6.20
2023-02-24T06:11:45.495Z,6.10
2023-02-24T06:14:13.027Z,6.10
2023-02-24T06:16:41.637Z,6.20
2023-02-24T06:19:10.415Z,6.20
2023-02-24T06:21:41.184Z,6.20
2023-02-24T06:24:14.832Z,6.20
2023-02-24T06:26:45.314Z,6.20
2023-02-24T06:29:16.356Z,6.20
2023-02-24T06:31:44.232Z,6.20
2023-02-24T06:34:13.072Z,6.30
2023-02-24T06:36:40.323Z,6.30
2023-02-24T06:39:13.688Z,6.20
2023-02-24T06:41:40.722Z,6.20
2023-02-24T06:44:09.407Z,6.20
2023-02-24T06:46:36.827Z,6.30
2023-02-24T06:49:04.170Z,6.30
2023-02-24T06:51:30.888Z,6.30
2023-02-24T06:53:59.392Z,6.30
2023-02-24T06:56:27.582Z,6.30
2023-02-24T06:58:56.299Z,6.40
2023-02-24T07:01:26.961Z,6.30
2023-02-24T07:04:02.727Z,6.30
2023-02-24T07:06:34.580Z,6.30
2023-02-24T07:09:05.514Z,6.30
2023-02-24T07:11:33.845Z,6.30
2023-02-24T07:14:01.598Z,6.40
2023-02-24T07:16:28.988Z,6.40
2023-02-24T07:18:58.076Z,6.40
2023-02-24T07:21:26.574Z,6.50
2023-02-24T07:23:58.770Z,6.40
2023-02-24T07:26:27.792Z,6.40
2023-02-24T07:28:55.045Z,6.40
2023-02-24T07:31:24.802Z,6.40
2023-02-24T07:33:57.511Z,6.50
2023-02-24T07:36:25.137Z,6.50
2023-02-24T07:38:53.503Z,6.60
2023-02-24T07:41:22.645Z,6.60
2023-02-24T07:43:51.951Z,6.70
2023-02-24T07:46:28.311Z,6.80
2023-02-24T07:48:57.000Z,6.90
2023-02-24T07:51:27.422Z,7.00
2023-02-24T07:54:03.597Z,7.10
2023-02-24T07:56:31.558Z,7.10
2023-02-24T07:59:07.867Z,7.00
2023-02-24T08:01:51.111Z,7.10
2023-02-24T08:04:20.388Z,7.20
2023-02-24T08:06:50.357Z,7.20
2023-02-24T08:09:20.772Z,7.20
2023-02-24T08:11:47.421Z,7.20
2023-02-24T08:14:15.097Z,7.20
2023-02-24T08:16:48.374Z,7.20
2023-02-24T08:19:21.002Z,7.20
2023-02-24T08:21:53.426Z,7.40
2023-02-24T08:24:29.796Z,7.50
2023-02-24T08:27:06.003Z,7.50
2023-02-24T08:29:58.114Z,7.50
2023-02-24T08:32:43.460Z,7.40
2023-02-24T08:35:16.029Z,7.40
2023-02-24T08:37:48.277Z,7.40
2023-02-24T08:40:31.156Z,7.30
2023-02-24T08:43:00.810Z,7.30
2023-02-24T08:45:33.763Z,7.20
2023-02-24T08:48:00.711Z,7.20
2023-02-24T08:50:31.109Z,7.20
2023-02-24T08:52:59.039Z,7.10
2023-02-24T08:55:30.645Z,7.10
2023-02-24T08:58:01.643Z,7.10
2023-02-24T09:00:49.337Z,7.10
2023-02-24T09:03:27.931Z,7.10
2023-02-24T09:06:04.497Z,7.00
2023-02-24T09:08:38.362Z,7.00
2023-02-24T09:11:09.243Z,7.00
2023-02-24T09:13:51.590Z,7.10
2023-02-24T09:16:20.596Z,7.20
2023-02-24T09:19:07.462Z,7.20
2023-02-24T09:22:01.009Z,7.30
2023-02-24T09:24:28.429Z,7.20
2023-02-24T09:27:04.613Z,7.20
2023-02-24T09:29:34.175Z,7.20
2023-02-24T09:32:06.636Z,7.10
2023-02-24T09:34:43.886Z,7.10
2023-02-24T09:37:25.026Z,7.20
2023-02-24T09:39:53.050Z,7.20
2023-02-24T09:42:22.355Z,7.30
2023-02-24T09:44:56.808Z,7.40
2023-02-24T09:47:40.417Z,7.50
2023-02-24T09:50:55.565Z,7.60
2023-02-24T09:53:18.239Z,7.60
2023-02-24T09:56:06.491Z,7.90
2023-02-24T09:58:47.994Z,8.00
2023-02-24T10:01:25.865Z,8.10
2023-02-24T10:04:27.403Z,8.10
2023-02-24T10:07:03.293Z,8.00
2023-02-24T10:09:51.735Z,7.90
2023-02-24T10:12:52.676Z,7.90
2023-02-24T10:15:47.492Z,7.70
2023-02-24T10:18:28.350Z,7.70
2023-02-24T10:21:19.229Z,7.50
2023-02-24T10:24:03.572Z,7.50
2023-02-24T10:27:00.733Z,7.60
2023-02-24T10:29:55.603Z,7.70
2023-02-24T10:32:41.564Z,7.70
2023-02-24T10:35:16.603Z,7.70
2023-02-24T10:37:44.032Z,7.60
2023-02-24T10:40:13.006Z,7.60
2023-02-24T10:42:50.280Z,7.60
2023-02-24T10:45:24.389Z,7.50
2023-02-24T10:47:57.486Z,7.60
2023-02-24T10:50:32.122Z,7.70
2023-02-24T10:53:10.574Z,7.70
2023-02-24T10:55:44.032Z,7.70
2023-02-24T10:58:56.382Z,7.60
2023-02-24T11:01:46.625Z,7.50
2023-02-24T11:04:28.226Z,7.40
2023-02-24T11:07:12.162Z,7.40
2023-02-24T11:09:52.810Z,7.50
2023-02-24T11:12:43.816Z,7.60
2023-02-24T11:15:43.426Z,7.90
2023-02-24T11:18:20.972Z,8.00
2023-02-24T11:20:52.262Z,8.20
2023-02-24T11:23:38.329Z,8.20
2023-02-24T11:26:26.599Z,8.10
2023-02-24T11:28:56.346Z,8.00
2023-02-24T11:31:46.382Z,8.00
2023-02-24T11:34:29.133Z,7.90
2023-02-24T11:37:20.900Z,7.70
2023-02-24T11:40:11.539Z,7.70
2023-02-24T11:42:50.519Z,7.60
2023-02-24T11:45:25.941Z,7.80
2023-02-24T11:48:00.921Z,7.80
2023-02-24T11:50:36.533Z,7.80
2023-02-24T11:53:11.952Z,7.90
2023-02-24T11:55:43.970Z,8.00
2023-02-24T11:58:17.563Z,8.10
2023-02-24T12:00:59.395Z,7.90
2023-02-24T12:03:50.399Z,7.80
2023-02-24T12:06:32.924Z,7.70
2023-02-24T12:09:09.294Z,7.60
2023-02-24T12:12:02.408Z,7.60
2023-02-24T12:14:52.576Z,7.60
2023-02-24T12:17:36.954Z,7.60
2023-02-24T12:20:28.038Z,7.60
2023-02-24T12:23:39.513Z,7.50
2023-02-24T12:26:25.428Z,7.40
2023-02-24T12:29:24.426Z,7.50
2023-02-24T12:31:57.360Z,7.70
2023-02-24T12:34:43.665Z,7.80
2023-02-24T12:37:38.017Z,7.90
2023-02-24T12:40:33.855Z,7.80
2023-02-24T12:43:13.767Z,7.80
2023-02-24T12:46:20.048Z,7.80
2023-02-24T12:48:55.766Z,7.70
2023-02-24T12:51:57.512Z,7.70
2023-02-24T12:54:31.923Z,7.60
2023-02-24T12:57:11.373Z,7.50
2023-02-24T12:59:42.706Z,7.50
2023-02-24T13:02:29.820Z,7.50
2023-02-24T13:05:06.567Z,7.50
2023-02-24T13:07:54.345Z,7.50
2023-02-24T13:10:24.245Z,7.50
2023-02-24T13:13:20.846Z,7.50
2023-02-24T13:15:53.884Z,7.50
2023-02-24T13:18:30.615Z,7.50
2023-02-24T13:21:22.038Z,7.50
2023-02-24T13:23:58.160Z,7.60
2023-02-24T13:26:26.707Z,7.50
2023-02-24T13:29:10.336Z,7.50
2023-02-24T13:31:52.053Z,7.40
2023-02-24T13:34:21.781Z,7.20
2023-02-24T13:36:50.214Z,7.20
2023-02-24T13:42:28.653Z,7.30
2023-02-24T13:45:04.531Z,7.30
2023-02-24T13:47:44.706Z,7.30
2023-02-24T13:50:21.009Z,7.30
2023-02-24T13:53:23.798Z,7.20
2023-02-24T13:55:58.615Z,7.10
2023-02-24T13:58:52.492Z,7.10
2023-02-24T14:01:22.227Z,7.10
2023-02-24T14:04:14.781Z,7.10
2023-02-24T14:06:47.960Z,7.10
2023-02-24T14:09:21.161Z,7.10
2023-02-24T14:11:54.438Z,7.20
2023-02-24T14:14:21.487Z,7.40
2023-02-24T14:16:50.743Z,7.50
2023-02-24T14:19:18.146Z,7.70
2023-02-24T14:21:50.543Z,7.70
2023-02-24T14:24:19.324Z,7.70
2023-02-24T14:26:53.400Z,7.80
2023-02-24T14:29:24.065Z,7.80
2023-02-24T14:31:54.452Z,7.70
2023-02-24T14:34:25.146Z,7.50
2023-02-24T14:36:54.810Z,7.50
2023-02-24T14:39:23.980Z,7.30
2023-02-24T14:41:52.542Z,7.10
2023-02-24T14:44:23.745Z,7.10
2023-02-24T14:46:54.213Z,7.10
2023-02-24T14:49:27.280Z,7.00
2023-02-24T14:52:06.754Z,7.00
2023-02-24T14:54:45.440Z,7.10
2023-02-24T14:57:17.508Z,7.00
2023-02-24T14:59:49.002Z,7.10
2023-02-24T15:02:20.200Z,7.10
2023-02-24T15:04:48.378Z,7.10
2023-02-24T15:07:19.578Z,7.10
2023-02-24T15:09:48.247Z,7.00
2023-02-24T15:12:33.538Z,6.90
2023-02-24T15:15:06.386Z,6.80
2023-02-24T15:17:33.577Z,6.70
2023-02-24T15:20:00.287Z,6.60
2023-02-24T15:22:33.564Z,6.60
2023-02-24T15:25:24.028Z,6.60
2023-02-24T15:27:54.505Z,6.50
2023-02-24T15:30:38.196Z,6.50
2023-02-24T15:33:14.751Z,6.40
2023-02-24T15:35:52.691Z,6.40
2023-02-24T15:38:34.726Z,6.30
2023-02-24T15:41:03.953Z,6.30
2023-02-24T15:43:37.226Z,6.30
2023-02-24T15:46:34.963Z,6.20
2023-02-24T15:49:03.448Z,6.30
2023-02-24T15:51:45.372Z,6.20
2023-02-24T15:54:18.760Z,6.10
2023-02-24T15:56:46.765Z,6.10
2023-02-24T15:59:18.676Z,6.10
2023-02-24T16:01:45.355Z,6.00
2023-02-24T16:04:12.341Z,6.00
2023-02-24T16:06:43.632Z,5.90
2023-02-24T16:09:14.807Z,5.90
2023-02-24T16:11:45.102Z,5.90
2023-02-24T16:14:16.662Z,5.80
2023-02-24T16:16:43.844Z,5.80
2023-02-24T16:19:14.757Z,5.80
2023-02-24T16:21:41.633Z,5.70
2023-02-24T16:24:08.393Z,5.60
2023-02-24T16:26:39.900Z,5.60
2023-02-24T16:29:12.286Z,5.50
2023-02-24T16:31:39.966Z,5.50
2023-02-24T16:34:07.260Z,5.50
2023-02-24T16:36:34.232Z,5.40
2023-02-24T16:39:01.397Z,5.40
2023-02-24T16:41:28.100Z,5.30
2023-02-24T16:43:54.733Z,5.30
2023-02-24T16:46:22.995Z,5.30
2023-02-24T16:48:53.651Z,5.20
2023-02-24T16:51:21.919Z,5.20
2023-02-24T16:53:48.574Z,5.20
2023-02-24T16:56:15.697Z,5.10
2023-02-24T16:58:42.384Z,5.20
2023-02-24T17:01:16.060Z,5.20
2023-02-24T17:03:45.454Z,5.10
2023-02-24T17:06:12.504Z,5.10
2023-02-24T17:08:41.515Z,5.10
2023-02-24T17:11:14.445Z,5.10
2023-02-24T17:13:41.203Z,5.10
2023-02-24T17:16:08.334Z,5.00
2023-02-24T17:18:35.234Z,5.00
2023-02-24T17:21:02.643Z,5.00
2023-02-24T17:23:29.292Z,4.90
2023-02-24T17:25:59.166Z,4.90
2023-02-24T17:28:25.862Z,4.90
2023-02-24T17:30:52.632Z,4.90
2023-02-24T17:33:19.629Z,4.90
2023-02-24T17:35:47.976Z,4.80
2023-02-24T17:38:16.595Z,4.90
2023-02-24T17:40:44.333Z,4.90
2023-02-24T17:43:30.170Z,4.80
2023-02-24T17:45:57.356Z,4.80
2023-02-24T17:48:31.457Z,4.90
2023-02-24T17:50:58.086Z,4.80
2023-02-24T17:53:26.458Z,4.80
2023-02-24T17:56:06.890Z,4.80
2023-02-24T17:58:33.692Z,4.80
2023-02-24T18:01:05.923Z,4.60
2023-02-24T18:03:36.609Z,4.50
2023-02-24T18:06:07.044Z,4.30
2023-02-24T18:08:35.171Z,4.20
2023-02-24T18:11:03.275Z,4.00
2023-02-24T18:13:50.870Z,3.90
2023-02-24T18:16:17.659Z,3.80
2023-02-24T18:18:44.444Z,3.60
2023-02-24T18:21:11.416Z,3.60
2023-02-24T18:23:45.428Z,3.50
2023-02-24T18:26:13.004Z,3.40
2023-02-24T18:28:42.951Z,3.30
2023-02-24T18:31:12.269Z,3.20
2023-02-24T18:33:39.590Z,3.20
2023-02-24T18:36:25.592Z,3.10
2023-02-24T18:38:52.596Z,3.10
2023-02-24T18:41:21.701Z,3.00
2023-02-24T18:43:50.311Z,3.00
2023-02-24T18:46:18.745Z,3.00
2023-02-24T18:48:47.077Z,2.90
2023-02-24T18:51:17.068Z,2.90
2023-02-24T18:53:46.029Z,2.90
2023-02-24T18:56:18.234Z,2.90
2023-02-24T18:58:45.972Z,2.80
2023-02-24T19:01:21.112Z,2.80
2023-02-24T19:03:49.277Z,2.80
2023-02-24T19:06:21.352Z,2.80
2023-02-24T19:08:50.238Z,2.70
2023-02-24T19:11:19.570Z,2.70
2023-02-24T19:13:49.992Z,2.60
2023-02-24T19:20:11.789Z,2.50
2023-02-24T19:22:38.629Z,2.40
2023-02-24T19:25:05.528Z,2.30
2023-02-24T19:27:32.174Z,2.30
2023-02-24T19:29:58.835Z,2.30
2023-02-24T19:32:25.592Z,2.20
2023-02-24T19:34:52.529Z,2.20
2023-02-24T19:37:19.298Z,2.10
2023-02-24T19:39:46.232Z,2.10
2023-02-24T19:42:12.862Z,2.10
2023-02-24T19:44:39.464Z,2.00
2023-02-24T19:47:06.333Z,1.90
2023-02-24T19:49:33.510Z,2.00
2023-02-24T19:52:00.649Z,2.00
2023-02-24T19:54:29.163Z,1.90
2023-02-24T19:56:57.813Z,1.90
2023-02-24T19:59:24.967Z,1.90
2023-02-24T20:01:52.451Z,1.90
2023-02-24T20:04:19.177Z,1.90
2023-02-24T20:06:45.900Z,1.90
2023-02-24T20:09:21.189Z,1.90
2023-02-24T20:11:50.186Z,1.80
2023-02-24T20:14:19.816Z,1.80
2023-02-24T20:16:47.687Z,1.80
2023-02-24T20:19:15.156Z,1.80
2023-02-24T20:21:41.922Z,1.70
2023-02-24T20:24:14.018Z,1.80
2023-02-24T20:26:42.341Z,1.80
2023-02-24T20:29:09.473Z,1.70
2023-02-24T20:31:36.421Z,1.70
2023-02-24T20:34:04.557Z,1.70
2023-02-24T20:36:31.567Z,1.70
2023-02-24T20:38:59.251Z,1.70
2023-02-24T20:41:27.063Z,1.70
2023-02-24T20:43:55.153Z,1.70
2023-02-24T20:46:25.824Z,1.70
2023-02-24T20:48:55.985Z,1.70
2023-02-24T20:51:23.225Z,1.70
2023-02-24T20:53:57.403Z,1.70
2023-02-24T20:56:27.252Z,1.70
2023-02-24T20:59:00.196Z,1.60
2023-02-24T21:01:27.189Z,1.70
2023-02-24T21:03:54.290Z,1.70
2023-02-24T21:06:21.285Z,1.60
2023-02-24T21:08:48.021Z,1.70
2023-02-24T21:11:15.314Z,1.70
2023-02-24T21:13:43.294Z,1.70
2023-02-24T21:16:12.088Z,1.60
2023-02-24T21:18:40.774Z,1.60
2023-02-24T21:21:09.036Z,1.60
2023-02-24T21:23:37.124Z,1.50
2023-02-24T21:26:04.669Z,1.50
2023-02-24T21:28:31.670Z,1.50
2023-02-24T21:30:58.491Z,1.50
2023-02-24T21:33:25.713Z,1.50
2023-02-24T21:36:04.149Z,1.50
2023-02-24T21:38:36.979Z,1.50
2023-02-24T21:41:05.879Z,1.50
2023-02-24T21:43:32.690Z,1.50
2023-02-24T21:46:03.621Z,1.50
2023-02-24T21:48:30.257Z,1.50
2023-02-24T21:51:06.022Z,1.50
2023-02-24T21:53:35.502Z,1.50
2023-02-24T21:56:16.810Z,1.50
2023-02-24T21:58:53.662Z,1.50
2023-02-24T22:01:24.101Z,1.50
2023-02-24T22:03:54.324Z,1.50
2023-02-24T22:06:21.728Z,1.60
2023-02-24T22:08:48.670Z,1.50
2023-02-24T22:11:17.900Z,1.50
2023-02-24T22:13:45.669Z,1.50
2023-02-24T22:16:15.439Z,1.50
2023-02-24T22:18:42.394Z,1.50
2023-02-24T22:21:11.715Z,1.60
2023-02-24T22:23:38.418Z,1.60
2023-02-24T22:26:10.467Z,1.60
2023-02-24T22:28:39.262Z,1.60
2023-02-24T22:31:08.194Z,1.60
2023-02-24T22:33:37.204Z,1.60
2023-02-24T22:36:05.825Z,1.60
2023-02-24T22:38:34.140Z,1.50
2023-02-24T22:41:03.512Z,1.50
2023-02-24T22:43:30.691Z,1.60
2023-02-24T22:46:04.278Z,1.50
2023-02-24T22:48:32.733Z,1.50
2023-02-24T22:51:04.091Z,1.50
2023-02-24T22:53:32.456Z,1.50
2023-02-24T22:55:59.385Z,1.50
2023-02-24T22:58:26.966Z,1.50
2023-02-24T23:00:54.886Z,1.60
2023-02-24T23:03:28.227Z,1.60
2023-02-24T23:06:01.213Z,1.60
2023-02-24T23:08:33.758Z,1.60
2023-02-24T23:11:21.459Z,1.60
2023-02-24T23:13:49.605Z,1.60
2023-02-24T23:16:19.438Z,1.60
2023-02-24T23:18:51.016Z,1.60
2023-02-24T23:21:24.174Z,1.60
2023-02-24T23:23:56.717Z,1.60
2023-02-24T23:26:29.406Z,1.60
2023-02-24T23:28:56.975Z,1.60
2023-02-24T23:31:23.925Z,1.60
2023-02-24T23:33:51.742Z,1.60
2023-02-24T23:36:18.699Z,1.60
2023-02-24T23:38:45.755Z,1.60
2023-02-24T23:41:13.243Z,1.60
2023-02-24T23:43:40.048Z,1.60
2023-02-24T23:46:12.002Z,1.60
2023-02-24T23:48:39.633Z,1.60
2023-02-24T23:51:10.335Z,1.50
2023-02-24T23:53:42.117Z,1.50
2023-02-24T23:56:15.088Z,1.60
2023-02-24T23:58:42.260Z,1.50
